Time;durP1;ratioP1;P1;durP2;ratioP2;P2;SDS_P1;SDS_P2;PMS_P1;PMS_P2;Temp;Humidity;BMP_temperature;BMP_pressure;BME280_temperature;BME280_humidity;BME280_pressure;Samples;Min_cycle;Max_cycle;Signal;HPM_P1;HPM_P2
2021/11/30 00:01:22;;;;;;;32.83;23.75;;;;;;;;;;5038404;28;20192;-66
2021/11/30 00:03:49;;;;;;;36.13;26.10;;;;;;;;;;5039780;28;20196;-67
2021/11/30 00:06:16;;;;;;;38.73;29.07;;;;;;;;;;5039435;28;20244;-67
2021/11/30 00:08:43;;;;;;;32.33;23.70;;;;;;;;;;5037328;28;20560;-66
2021/11/30 00:11:11;;;;;;;28.45;22.27;;;;;;;;;;5035397;28;20427;-66
2021/11/30 00:13:38;;;;;;;29.08;22.55;;;;;;;;;;5049181;28;20207;-66
2021/11/30 00:16:05;;;;;;;30.53;23.23;;;;;;;;;;5040913;28;20203;-68
2021/11/30 00:18:33;;;;;;;31.13;22.83;;;;;;;;;;5066232;28;20527;-68
2021/11/30 00:21:10;;;;;;;27.37;21.60;;;;;;;;;;5069852;28;20192;-67
2021/11/30 00:23:37;;;;;;;32.87;24.83;;;;;;;;;;5069625;28;20444;-69
2021/11/30 00:26:05;;;;;;;34.77;26.90;;;;;;;;;;5069481;28;20527;-69
2021/11/30 00:28:32;;;;;;;36.55;26.20;;;;;;;;;;5069082;28;20450;-68
2021/11/30 00:30:59;;;;;;;32.53;25.57;;;;;;;;;;5059417;28;20199;-69
2021/11/30 00:33:27;;;;;;;33.70;25.17;;;;;;;;;;5053216;28;20460;-68
2021/11/30 00:35:54;;;;;;;37.40;26.60;;;;;;;;;;5022632;28;20447;-67
2021/11/30 00:38:21;;;;;;;35.80;26.53;;;;;;;;;;5039758;28;20440;-68
2021/11/30 00:40:48;;;;;;;38.67;28.10;;;;;;;;;;5040214;28;20512;-67
2021/11/30 00:43:20;;;;;;;36.83;27.63;;;;;;;;;;5040515;28;20462;-68
2021/11/30 00:46:33;;;;;;;38.47;28.03;;;;;;;;;;5049023;28;21007;-66
2021/11/30 00:48:38;;;;;;;36.40;27.10;;;;;;;;;;5046521;28;20453;-66
2021/11/30 00:51:06;;;;;;;38.60;27.67;;;;;;;;;;5044508;28;20439;-67
2021/11/30 00:53:33;;;;;;;35.50;26.87;;;;;;;;;;5037578;28;20917;-66
2021/11/30 00:56:00;;;;;;;37.00;27.10;;;;;;;;;;5037866;28;20435;-68
2021/11/30 00:58:27;;;;;;;37.25;27.50;;;;;;;;;;5039837;28;20977;-69
2021/11/30 01:00:54;;;;;;;39.33;29.10;;;;;;;;;;5048838;28;20195;-69
2021/11/30 01:03:21;;;;;;;36.73;26.93;;;;;;;;;;5048036;28;20525;-69
2021/11/30 01:05:48;;;;;;;40.40;27.90;;;;;;;;;;5043850;28;20474;-66
2021/11/30 01:08:15;;;;;;;39.80;28.85;;;;;;;;;;5036509;28;20228;-69
2021/11/30 01:10:41;;;;;;;44.05;31.50;;;;;;;;;;5037894;28;20850;-68
2021/11/30 01:13:08;;;;;;;45.40;33.08;;;;;;;;;;5042382;28;20204;-67
2021/11/30 01:15:35;;;;;;;51.22;35.45;;;;;;;;;;5048623;28;20249;-68
2021/11/30 01:18:02;;;;;;;48.90;34.20;;;;;;;;;;5041181;28;20187;-69
2021/11/30 01:20:29;;;;;;;53.07;37.17;;;;;;;;;;5056489;28;20442;-65
2021/11/30 01:22:56;;;;;;;54.17;37.90;;;;;;;;;;5036226;28;20439;-68
2021/11/30 01:25:24;;;;;;;62.25;41.97;;;;;;;;;;5043487;28;20470;-69
2021/11/30 01:27:51;;;;;;;60.83;40.67;;;;;;;;;;5043162;28;20283;-68
2021/11/30 01:30:17;;;;;;;60.90;39.97;;;;;;;;;;5042778;28;20445;-66
2021/11/30 01:32:45;;;;;;;62.73;42.17;;;;;;;;;;5053169;28;20196;-67
2021/11/30 01:35:13;;;;;;;51.40;36.40;;;;;;;;;;5041484;28;20447;-67
2021/11/30 01:37:40;;;;;;;52.90;36.47;;;;;;;;;;5040524;28;20451;-67
2021/11/30 01:40:08;;;;;;;49.73;36.33;;;;;;;;;;5050194;28;20991;-64
2021/11/30 01:42:35;;;;;;;48.78;34.03;;;;;;;;;;5050716;28;20450;-67
2021/11/30 01:45:07;;;;;;;48.72;33.10;;;;;;;;;;5039865;28;20216;-65
2021/11/30 01:48:09;;;;;;;43.60;29.08;;;;;;;;;;5047860;28;20220;-66
2021/11/30 01:50:37;;;;;;;27.13;19.45;;;;;;;;;;5033609;28;20200;-68
2021/11/30 01:53:05;;;;;;;13.30;8.90;;;;;;;;;;5032792;28;20201;-67
2021/11/30 01:55:32;;;;;;;8.45;5.68;;;;;;;;;;5033312;28;20196;-67
2021/11/30 01:58:00;;;;;;;6.13;4.10;;;;;;;;;;5032365;28;20649;-66
2021/11/30 02:00:27;;;;;;;4.32;2.60;;;;;;;;;;5033228;28;20200;-66
2021/11/30 02:02:54;;;;;;;1.95;1.55;;;;;;;;;;5033597;28;20193;-67
2021/11/30 02:05:21;;;;;;;1.67;1.20;;;;;;;;;;5041827;28;20225;-67
2021/11/30 02:07:47;;;;;;;2.60;1.02;;;;;;;;;;5042197;28;20573;-67
2021/11/30 02:10:15;;;;;;;0.80;0.70;;;;;;;;;;5043111;28;20200;-68
2021/11/30 02:12:42;;;;;;;0.80;0.65;;;;;;;;;;5043729;28;20196;-67
2021/11/30 02:15:11;;;;;;;0.57;0.47;;;;;;;;;;5052113;28;20211;-66
2021/11/30 02:17:38;;;;;;;0.40;0.35;;;;;;;;;;5050963;28;20204;-67
2021/11/30 02:20:08;;;;;;;1.00;0.47;;;;;;;;;;5044769;28;20189;-68
2021/11/30 02:22:35;;;;;;;1.02;0.50;;;;;;;;;;5040594;28;20228;-67
2021/11/30 02:25:03;;;;;;;0.32;0.30;;;;;;;;;;5041695;28;20227;-67
2021/11/30 02:27:30;;;;;;;0.60;0.50;;;;;;;;;;5043229;28;20254;-67
2021/11/30 02:29:57;;;;;;;0.40;0.40;;;;;;;;;;5051739;28;20197;-66
2021/11/30 02:32:24;;;;;;;0.63;0.45;;;;;;;;;;5039777;28;20668;-68
2021/11/30 02:34:50;;;;;;;0.95;0.50;;;;;;;;;;5040485;28;20197;-67
2021/11/30 02:37:23;;;;;;;0.50;0.50;;;;;;;;;;5040221;28;20207;-67
2021/11/30 02:39:50;;;;;;;0.35;0.35;;;;;;;;;;5040204;28;20203;-66
2021/11/30 02:42:17;;;;;;;0.90;0.60;;;;;;;;;;5047198;28;20232;-64
2021/11/30 02:44:44;;;;;;;1.02;0.70;;;;;;;;;;5051498;28;20227;-65
2021/11/30 02:47:12;;;;;;;1.17;0.85;;;;;;;;;;5055093;28;20226;-67
2021/11/30 02:49:40;;;;;;;1.02;0.80;;;;;;;;;;5059171;28;20272;-67
2021/11/30 02:52:09;;;;;;;1.10;0.80;;;;;;;;;;5050173;28;20204;-69
2021/11/30 02:54:41;;;;;;;0.65;0.57;;;;;;;;;;5050376;28;20224;-68
2021/11/30 02:57:09;;;;;;;1.10;0.60;;;;;;;;;;5050786;28;20207;-64
2021/11/30 02:59:42;;;;;;;0.75;0.50;;;;;;;;;;5051385;28;20188;-66
2021/11/30 03:02:13;;;;;;;0.88;0.60;;;;;;;;;;5039208;28;20193;-65
2021/11/30 03:04:45;;;;;;;1.27;0.63;;;;;;;;;;5041783;28;20208;-67
2021/11/30 03:07:13;;;;;;;4.60;1.30;;;;;;;;;;5036432;28;20240;-66
2021/11/30 03:09:40;;;;;;;0.80;0.70;;;;;;;;;;5039291;28;20207;-66
2021/11/30 03:12:07;;;;;;;0.82;0.73;;;;;;;;;;5050578;28;20200;-67
2021/11/30 03:14:34;;;;;;;0.57;0.57;;;;;;;;;;5051174;28;20204;-66
2021/11/30 03:17:02;;;;;;;0.63;0.60;;;;;;;;;;5038890;28;20896;-65
2021/11/30 03:19:29;;;;;;;0.70;0.60;;;;;;;;;;5041369;28;20248;-64
2021/11/30 03:21:57;;;;;;;0.60;0.60;;;;;;;;;;5038857;28;20200;-64
2021/11/30 03:24:24;;;;;;;0.43;0.40;;;;;;;;;;5038173;28;20207;-65
2021/11/30 03:26:51;;;;;;;0.70;0.60;;;;;;;;;;5039249;28;20235;-66
2021/11/30 03:29:18;;;;;;;0.65;0.65;;;;;;;;;;5049755;28;20200;-66
2021/11/30 03:34:16;;;;;;;1.02;0.60;;;;;;;;;;5055464;28;20271;-66
2021/11/30 03:36:46;;;;;;;0.90;0.60;;;;;;;;;;5041536;28;20193;-66
2021/11/30 03:39:15;;;;;;;1.23;0.70;;;;;;;;;;5035302;28;20207;-65
2021/11/30 03:41:42;;;;;;;1.35;0.80;;;;;;;;;;5038844;28;20200;-67
2021/11/30 03:44:09;;;;;;;1.52;0.98;;;;;;;;;;5049905;28;20203;-66
2021/11/30 03:46:42;;;;;;;1.30;0.95;;;;;;;;;;5048481;28;20235;-67
2021/11/30 03:49:10;;;;;;;1.33;0.98;;;;;;;;;;5050619;28;20192;-65
2021/11/30 03:51:37;;;;;;;1.30;0.88;;;;;;;;;;5038581;28;20786;-67
2021/11/30 03:54:05;;;;;;;1.10;0.98;;;;;;;;;;5049031;28;20579;-67
2021/11/30 03:56:33;;;;;;;3.28;0.93;;;;;;;;;;5050184;28;20184;-67
2021/11/30 03:59:01;;;;;;;1.10;0.70;;;;;;;;;;5049797;28;20244;-67
2021/11/30 04:01:28;;;;;;;0.65;0.55;;;;;;;;;;5049264;28;20671;-68
2021/11/30 04:03:56;;;;;;;1.00;0.90;;;;;;;;;;5037822;28;20193;-67
2021/11/30 04:06:23;;;;;;;1.73;1.33;;;;;;;;;;5039535;28;20208;-68
2021/11/30 04:08:51;;;;;;;2.35;0.90;;;;;;;;;;5037813;28;20239;-67
2021/11/30 04:11:21;;;;;;;0.80;0.80;;;;;;;;;;5038775;28;20222;-68
2021/11/30 04:13:48;;;;;;;1.35;0.98;;;;;;;;;;5037194;28;21257;-67
2021/11/30 04:16:15;;;;;;;1.73;1.30;;;;;;;;;;5040751;28;20288;-68
2021/11/30 04:18:42;;;;;;;1.40;1.10;;;;;;;;;;5038843;28;20208;-66
2021/11/30 04:21:09;;;;;;;1.63;1.15;;;;;;;;;;5037926;28;20207;-66
2021/11/30 04:23:35;;;;;;;2.33;1.20;;;;;;;;;;5037342;28;20210;-66
2021/11/30 04:26:02;;;;;;;1.67;1.30;;;;;;;;;;5048343;28;20228;-65
2021/11/30 04:28:30;;;;;;;1.75;1.48;;;;;;;;;;5049136;28;20203;-67
2021/11/30 04:30:57;;;;;;;1.27;1.17;;;;;;;;;;5047888;28;20563;-65
2021/11/30 04:33:23;;;;;;;2.65;1.27;;;;;;;;;;5043803;28;20207;-65
2021/11/30 04:35:50;;;;;;;1.73;1.42;;;;;;;;;;5037843;28;20211;-67
2021/11/30 04:38:17;;;;;;;1.65;1.55;;;;;;;;;;5037749;28;20278;-66
2021/11/30 04:40:44;;;;;;;2.03;1.40;;;;;;;;;;5039942;28;20188;-67
2021/11/30 04:43:11;;;;;;;2.55;1.50;;;;;;;;;;5048027;28;20556;-67
2021/11/30 04:46:01;;;;;;;1.67;1.45;;;;;;;;;;5053014;28;20671;-67
2021/11/30 04:48:25;;;;;;;1.58;1.40;;;;;;;;;;5054231;28;20291;-65
2021/11/30 04:50:53;;;;;;;2.20;1.58;;;;;;;;;;5048491;28;20275;-66
2021/11/30 04:53:21;;;;;;;2.60;1.48;;;;;;;;;;5049356;28;20228;-67
2021/11/30 04:55:50;;;;;;;1.75;1.30;;;;;;;;;;5053386;28;20197;-65
2021/11/30 04:58:18;;;;;;;1.90;1.27;;;;;;;;;;5053575;28;20241;-64
2021/11/30 05:00:45;;;;;;;2.70;1.40;;;;;;;;;;5045659;28;20201;-65
2021/11/30 05:03:12;;;;;;;1.63;1.13;;;;;;;;;;5023126;28;20255;-66
2021/11/30 05:05:39;;;;;;;2.03;1.38;;;;;;;;;;5024300;28;20205;-66
2021/11/30 05:08:06;;;;;;;2.55;1.80;;;;;;;;;;5023033;28;20235;-64
2021/11/30 05:10:32;;;;;;;1.88;1.30;;;;;;;;;;5021830;28;20193;-66
2021/11/30 05:13:01;;;;;;;3.20;2.03;;;;;;;;;;5024959;28;20209;-64
2021/11/30 05:15:28;;;;;;;3.00;2.40;;;;;;;;;;5031716;28;20190;-65
2021/11/30 05:17:55;;;;;;;4.68;2.33;;;;;;;;;;5032499;28;20196;-64
2021/11/30 05:20:22;;;;;;;3.67;3.05;;;;;;;;;;5032027;28;20691;-64
2021/11/30 05:22:52;;;;;;;5.78;3.10;;;;;;;;;;5032520;28;20202;-63
2021/11/30 05:25:24;;;;;;;5.70;3.92;;;;;;;;;;5033103;28;20201;-64
2021/11/30 05:27:51;;;;;;;6.20;4.30;;;;;;;;;;5031649;28;20252;-68
2021/11/30 05:30:20;;;;;;;6.45;4.22;;;;;;;;;;5031625;28;20203;-64
2021/11/30 05:32:48;;;;;;;6.82;4.85;;;;;;;;;;5031482;28;20239;-65
2021/11/30 05:35:15;;;;;;;9.77;5.25;;;;;;;;;;5032589;28;20324;-65
2021/11/30 05:37:42;;;;;;;7.00;4.65;;;;;;;;;;5031403;28;20212;-67
2021/11/30 05:40:09;;;;;;;7.50;4.30;;;;;;;;;;5032573;28;20193;-68
2021/11/30 05:42:35;;;;;;;8.55;5.57;;;;;;;;;;5032181;28;20641;-70
2021/11/30 05:45:02;;;;;;;8.98;5.30;;;;;;;;;;5032910;28;20204;-68
2021/11/30 05:47:29;;;;;;;7.22;5.35;;;;;;;;;;5032631;28;20228;-64
2021/11/30 05:49:56;;;;;;;7.93;5.00;;;;;;;;;;5032256;28;20207;-67
2021/11/30 05:52:23;;;;;;;7.40;5.63;;;;;;;;;;5032102;28;20672;-69
2021/11/30 05:54:50;;;;;;;14.57;10.15;;;;;;;;;;5032082;28;20723;-65
2021/11/30 05:57:18;;;;;;;25.77;15.35;;;;;;;;;;5032088;28;20213;-65
2021/11/30 05:59:46;;;;;;;44.85;30.67;;;;;;;;;;5032069;28;20259;-68
2021/11/30 06:02:13;;;;;;;11.73;6.43;;;;;;;;;;5030100;28;20221;-68
2021/11/30 06:04:40;;;;;;;8.73;6.00;;;;;;;;;;5030107;28;20201;-63
2021/11/30 06:07:06;;;;;;;10.45;5.88;;;;;;;;;;5030624;28;20241;-68
2021/11/30 06:09:34;;;;;;;8.23;5.75;;;;;;;;;;5031269;28;20201;-70
2021/11/30 06:12:03;;;;;;;9.95;6.03;;;;;;;;;;5031074;28;20205;-68
2021/11/30 06:14:29;;;;;;;6.30;4.47;;;;;;;;;;5031514;28;20584;-65
2021/11/30 06:16:56;;;;;;;7.18;4.82;;;;;;;;;;5031414;28;20292;-66
2021/11/30 06:19:23;;;;;;;28.17;17.88;;;;;;;;;;5032339;28;20177;-66
2021/11/30 06:21:50;;;;;;;12.35;6.57;;;;;;;;;;5031274;28;20200;-68
2021/11/30 06:24:17;;;;;;;8.65;5.30;;;;;;;;;;5031728;28;20205;-71
2021/11/30 06:26:44;;;;;;;8.05;5.45;;;;;;;;;;5031611;28;20270;-66
2021/11/30 06:29:11;;;;;;;9.13;6.10;;;;;;;;;;5031670;28;20184;-65
2021/11/30 06:31:38;;;;;;;7.78;5.18;;;;;;;;;;5031448;28;20191;-69
2021/11/30 06:34:05;;;;;;;9.30;6.03;;;;;;;;;;5029580;28;20182;-64
2021/11/30 06:36:32;;;;;;;11.10;6.65;;;;;;;;;;5030387;28;20587;-68
2021/11/30 06:38:59;;;;;;;10.73;5.93;;;;;;;;;;5029623;28;20213;-64
2021/11/30 06:41:26;;;;;;;10.73;6.22;;;;;;;;;;5031283;28;20204;-68
2021/11/30 06:43:53;;;;;;;12.95;6.40;;;;;;;;;;5031310;28;20209;-70
2021/11/30 06:46:22;;;;;;;8.77;6.57;;;;;;;;;;5030412;28;20245;-68
2021/11/30 06:48:50;;;;;;;12.75;7.10;;;;;;;;;;5031709;28;20197;-68
2021/11/30 06:51:17;;;;;;;11.55;7.22;;;;;;;;;;5031821;28;20201;-65
2021/11/30 06:53:43;;;;;;;10.30;7.22;;;;;;;;;;5031614;28;20204;-69
2021/11/30 06:56:10;;;;;;;10.10;6.07;;;;;;;;;;5031571;28;20652;-66
2021/11/30 06:58:38;;;;;;;10.38;6.88;;;;;;;;;;5031786;28;20649;-67
2021/11/30 07:01:07;;;;;;;12.73;7.78;;;;;;;;;;5031501;28;20297;-65
2021/11/30 07:03:35;;;;;;;10.75;7.57;;;;;;;;;;5031527;28;20193;-61
2021/11/30 07:06:11;;;;;;;10.63;7.03;;;;;;;;;;5031954;28;20215;-63
2021/11/30 07:14:05;;;;;;;12.35;8.25;;;;;;;;;;5031516;28;20205;-62
2021/11/30 07:16:33;;;;;;;15.38;8.75;;;;;;;;;;5031446;28;20686;-65
2021/11/30 07:19:00;;;;;;;11.73;7.55;;;;;;;;;;5030961;28;20247;-64
2021/11/30 07:21:27;;;;;;;6.90;4.50;;;;;;;;;;5031210;28;20686;-61
2021/11/30 07:23:55;;;;;;;14.18;8.88;;;;;;;;;;5030898;28;20182;-64
2021/11/30 07:26:23;;;;;;;12.82;8.50;;;;;;;;;;5030905;28;20223;-67
2021/11/30 07:28:50;;;;;;;15.80;8.30;;;;;;;;;;5030733;28;20567;-72
2021/11/30 07:31:16;;;;;;;11.35;8.30;;;;;;;;;;5029852;28;20723;-64
2021/11/30 07:33:46;;;;;;;12.10;8.70;;;;;;;;;;5030747;28;20207;-67
2021/11/30 07:36:14;;;;;;;15.93;10.02;;;;;;;;;;5030709;28;20200;-65
2021/11/30 07:38:42;;;;;;;10.13;6.78;;;;;;;;;;5030502;28;20252;-67
2021/11/30 07:41:10;;;;;;;19.90;9.27;;;;;;;;;;5030475;28;20240;-64
2021/11/30 07:43:37;;;;;;;14.60;9.82;;;;;;;;;;5030667;28;20217;-67
2021/11/30 07:46:03;;;;;;;11.75;8.38;;;;;;;;;;5031097;28;20205;-69
2021/11/30 07:48:31;;;;;;;14.88;9.77;;;;;;;;;;5030921;28;20280;-61
2021/11/30 07:50:58;;;;;;;14.77;9.30;;;;;;;;;;5031784;28;20193;-67
2021/11/30 07:53:25;;;;;;;14.45;10.23;;;;;;;;;;5031120;28;20193;-66
2021/11/30 07:55:53;;;;;;;16.92;11.20;;;;;;;;;;5031771;28;20193;-67
2021/11/30 07:58:20;;;;;;;16.05;10.57;;;;;;;;;;5030935;28;20207;-66
2021/11/30 08:00:47;;;;;;;17.02;11.52;;;;;;;;;;5029473;28;20193;-67
2021/11/30 08:03:14;;;;;;;16.75;9.75;;;;;;;;;;5030614;28;20185;-64
2021/11/30 08:05:42;;;;;;;14.85;9.77;;;;;;;;;;5031273;28;20193;-72
2021/11/30 08:08:08;;;;;;;17.17;12.10;;;;;;;;;;5030741;28;20613;-65
2021/11/30 08:10:35;;;;;;;16.23;10.45;;;;;;;;;;5030712;28;20199;-66
2021/11/30 08:13:02;;;;;;;17.58;11.90;;;;;;;;;;5030845;28;20200;-70
2021/11/30 08:15:29;;;;;;;18.42;11.98;;;;;;;;;;5030887;28;20204;-64
2021/11/30 08:18:00;;;;;;;18.20;10.95;;;;;;;;;;5030681;28;20235;-65
2021/11/30 08:20:27;;;;;;;18.02;11.45;;;;;;;;;;5029412;28;20224;-69
2021/11/30 08:22:54;;;;;;;19.67;12.85;;;;;;;;;;5030399;28;20192;-63
2021/11/30 08:25:20;;;;;;;18.52;12.35;;;;;;;;;;5030878;28;20279;-71
2021/11/30 08:27:47;;;;;;;20.33;12.60;;;;;;;;;;5029510;28;20229;-68
2021/11/30 08:30:25;;;;;;;20.58;13.15;;;;;;;;;;5030904;28;20255;-67
2021/11/30 08:32:54;;;;;;;15.63;10.82;;;;;;;;;;5030390;28;20189;-67
2021/11/30 08:35:21;;;;;;;21.77;13.35;;;;;;;;;;5029521;28;20189;-69
2021/11/30 08:37:49;;;;;;;20.73;13.85;;;;;;;;;;5030161;28;20250;-68
2021/11/30 08:40:16;;;;;;;16.95;11.27;;;;;;;;;;5030317;28;20189;-63
2021/11/30 08:42:42;;;;;;;22.20;14.02;;;;;;;;;;5030305;28;20749;-62
2021/11/30 08:45:10;;;;;;;20.25;12.35;;;;;;;;;;5030607;28;20193;-66
2021/11/30 08:47:38;;;;;;;20.73;13.68;;;;;;;;;;5029850;28;20229;-66
2021/11/30 08:50:15;;;;;;;20.27;13.68;;;;;;;;;;5030145;28;20201;-67
2021/11/30 08:52:43;;;;;;;20.00;11.43;;;;;;;;;;5030684;28;20189;-69
2021/11/30 08:55:10;;;;;;;18.95;12.85;;;;;;;;;;5030580;28;20209;-66
2021/11/30 08:57:37;;;;;;;18.95;12.95;;;;;;;;;;5030305;28;20711;-67
2021/11/30 09:00:15;;;;;;;19.85;13.10;;;;;;;;;;5030432;28;20189;-70
2021/11/30 09:02:42;;;;;;;19.25;13.00;;;;;;;;;;5029949;28;20200;-68
2021/11/30 09:05:09;;;;;;;18.23;11.68;;;;;;;;;;5030368;28;20197;-69
2021/11/30 09:07:36;;;;;;;21.55;14.77;;;;;;;;;;5029595;28;20660;-70
2021/11/30 09:10:03;;;;;;;18.60;11.93;;;;;;;;;;5028702;28;20204;-70
2021/11/30 09:12:30;;;;;;;18.30;12.10;;;;;;;;;;5029825;28;20201;-69
2021/11/30 09:14:57;;;;;;;17.88;12.65;;;;;;;;;;5030449;28;20188;-67
2021/11/30 09:17:45;;;;;;;19.00;11.55;;;;;;;;;;5030205;28;20209;-69
2021/11/30 09:20:12;;;;;;;18.40;11.60;;;;;;;;;;5029657;28;20284;-65
2021/11/30 09:22:39;;;;;;;18.17;11.27;;;;;;;;;;5030017;28;20644;-71
2021/11/30 09:25:06;;;;;;;18.25;12.20;;;;;;;;;;5030417;28;20205;-67
2021/11/30 09:27:36;;;;;;;18.75;12.82;;;;;;;;;;5029975;28;20544;-66
2021/11/30 09:30:03;;;;;;;15.85;10.60;;;;;;;;;;5029993;28;20197;-65
2021/11/30 09:32:30;;;;;;;15.82;11.65;;;;;;;;;;5030192;28;20201;-65
2021/11/30 09:35:04;;;;;;;18.77;12.13;;;;;;;;;;5030380;28;20193;-69
2021/11/30 09:37:31;;;;;;;17.33;12.25;;;;;;;;;;5029881;28;20217;-70
2021/11/30 09:39:59;;;;;;;17.92;12.35;;;;;;;;;;5031420;28;20193;-68
2021/11/30 09:42:27;;;;;;;15.88;9.20;;;;;;;;;;5033275;28;20189;-71
2021/11/30 09:44:54;;;;;;;15.50;8.30;;;;;;;;;;5033940;28;20196;-67
2021/11/30 09:47:21;;;;;;;15.65;10.63;;;;;;;;;;5034013;28;20197;-65
2021/11/30 09:49:48;;;;;;;13.35;8.73;;;;;;;;;;5033485;28;20272;-65
2021/11/30 09:52:15;;;;;;;17.05;11.00;;;;;;;;;;5033214;28;20640;-66
2021/11/30 09:54:43;;;;;;;16.38;11.07;;;;;;;;;;5033789;28;20185;-69
2021/11/30 09:57:10;;;;;;;17.90;11.25;;;;;;;;;;5032756;28;20248;-66
2021/11/30 09:59:37;;;;;;;17.45;10.75;;;;;;;;;;5033258;28;20195;-64
2021/11/30 10:02:04;;;;;;;14.60;9.95;;;;;;;;;;5032959;28;20280;-66
2021/11/30 10:04:31;;;;;;;15.43;10.50;;;;;;;;;;5033260;28;20263;-65
2021/11/30 10:06:58;;;;;;;15.27;9.32;;;;;;;;;;5032507;28;20677;-66
2021/11/30 10:09:25;;;;;;;13.10;9.05;;;;;;;;;;5033328;28;20537;-64
2021/11/30 10:11:57;;;;;;;15.30;9.60;;;;;;;;;;5032761;28;20224;-69
2021/11/30 10:14:27;;;;;;;16.30;10.43;;;;;;;;;;5033173;28;20264;-69
2021/11/30 10:17:07;;;;;;;13.57;8.75;;;;;;;;;;5032273;28;20685;-61
2021/11/30 10:19:34;;;;;;;12.50;8.85;;;;;;;;;;5033025;28;20197;-65
2021/11/30 10:22:01;;;;;;;12.98;8.70;;;;;;;;;;5032051;28;20208;-66
2021/11/30 10:24:27;;;;;;;12.23;7.78;;;;;;;;;;5032890;28;20196;-64
2021/11/30 10:26:55;;;;;;;10.57;6.30;;;;;;;;;;5032510;28;20619;-60
2021/11/30 10:29:22;;;;;;;10.38;6.78;;;;;;;;;;5032828;28;20221;-68
2021/11/30 10:31:50;;;;;;;12.73;8.68;;;;;;;;;;5032342;28;20207;-63
2021/11/30 10:34:25;;;;;;;9.82;6.75;;;;;;;;;;5032891;28;20200;-65
2021/11/30 10:36:53;;;;;;;13.63;9.48;;;;;;;;;;5032091;28;20623;-65
2021/11/30 10:39:22;;;;;;;14.95;9.80;;;;;;;;;;5032638;28;20209;-63
2021/11/30 10:41:51;;;;;;;14.50;8.75;;;;;;;;;;5032395;28;20197;-66
2021/11/30 10:44:28;;;;;;;14.05;8.40;;;;;;;;;;5032602;28;20208;-64
2021/11/30 10:47:06;;;;;;;13.80;8.52;;;;;;;;;;5031541;28;20260;-64
2021/11/30 10:49:33;;;;;;;11.73;7.03;;;;;;;;;;5032634;28;20292;-65
2021/11/30 10:52:00;;;;;;;13.65;9.27;;;;;;;;;;5030746;28;20388;-66
2021/11/30 10:54:34;;;;;;;14.82;9.82;;;;;;;;;;5031872;28;20200;-68
2021/11/30 10:57:02;;;;;;;13.15;9.05;;;;;;;;;;5031480;28;20207;-66
2021/11/30 10:59:29;;;;;;;13.07;8.85;;;;;;;;;;5032059;28;20207;-67
2021/11/30 11:01:56;;;;;;;13.45;8.43;;;;;;;;;;5032199;28;20200;-63
2021/11/30 11:04:30;;;;;;;12.65;9.07;;;;;;;;;;5032137;28;20181;-69
2021/11/30 11:07:04;;;;;;;13.68;9.20;;;;;;;;;;5031505;28;20224;-67
2021/11/30 11:09:38;;;;;;;12.10;8.38;;;;;;;;;;5032167;28;20193;-63
2021/11/30 11:12:08;;;;;;;11.98;7.93;;;;;;;;;;5031488;28;20189;-64
2021/11/30 11:14:43;;;;;;;14.45;8.63;;;;;;;;;;5031656;28;20205;-62
2021/11/30 11:17:11;;;;;;;16.25;9.32;;;;;;;;;;5031086;28;20201;-64
2021/11/30 11:19:42;;;;;;;14.45;10.15;;;;;;;;;;5032220;28;20193;-64
2021/11/30 11:22:16;;;;;;;13.98;9.02;;;;;;;;;;5031000;28;20683;-63
2021/11/30 11:24:43;;;;;;;14.88;8.15;;;;;;;;;;5031664;28;20224;-65
2021/11/30 11:27:12;;;;;;;16.20;10.57;;;;;;;;;;5031055;28;20583;-65
2021/11/30 11:29:42;;;;;;;14.95;9.52;;;;;;;;;;5031499;28;20276;-68
2021/11/30 11:32:10;;;;;;;33.35;18.92;;;;;;;;;;5031198;28;20193;-68
2021/11/30 11:34:37;;;;;;;16.15;8.75;;;;;;;;;;5031272;28;20741;-66
2021/11/30 11:37:05;;;;;;;14.18;8.18;;;;;;;;;;5031215;28;20652;-61
2021/11/30 11:39:32;;;;;;;14.02;9.43;;;;;;;;;;5031397;28;20236;-64
2021/11/30 11:42:00;;;;;;;16.15;9.55;;;;;;;;;;5030572;28;20201;-64
2021/11/30 11:44:27;;;;;;;15.38;8.43;;;;;;;;;;5031530;28;20596;-61
2021/11/30 11:47:01;;;;;;;20.00;11.38;;;;;;;;;;5031073;28;20197;-62
2021/11/30 11:49:32;;;;;;;11.32;7.75;;;;;;;;;;5031006;28;20201;-63
2021/11/30 11:52:00;;;;;;;11.30;7.15;;;;;;;;;;5030520;28;20259;-66
2021/11/30 11:54:30;;;;;;;15.85;8.98;;;;;;;;;;5031100;28;20193;-64
2021/11/30 11:57:07;;;;;;;14.02;8.85;;;;;;;;;;5030077;28;20193;-65
2021/11/30 11:59:37;;;;;;;12.40;8.45;;;;;;;;;;5030769;28;20232;-66
2021/11/30 12:02:13;;;;;;;13.18;8.77;;;;;;;;;;5030177;28;20208;-65
2021/11/30 12:04:41;;;;;;;12.02;7.82;;;;;;;;;;5030192;28;20212;-66
2021/11/30 12:07:08;;;;;;;11.45;7.10;;;;;;;;;;5030613;28;20233;-67
2021/11/30 12:09:37;;;;;;;10.65;7.53;;;;;;;;;;5030832;28;20619;-62
2021/11/30 12:12:09;;;;;;;8.90;6.60;;;;;;;;;;5030170;28;20205;-62
2021/11/30 12:14:50;;;;;;;9.50;7.15;;;;;;;;;;5030921;28;20196;-63
2021/11/30 12:17:23;;;;;;;10.55;7.38;;;;;;;;;;5030293;28;20288;-64
2021/11/30 12:19:50;;;;;;;9.32;6.93;;;;;;;;;;5030010;28;20208;-67
2021/11/30 12:22:35;;;;;;;9.98;7.05;;;;;;;;;;5030220;28;20197;-66
2021/11/30 12:25:05;;;;;;;9.35;6.25;;;;;;;;;;5030331;28;20715;-65
2021/11/30 12:27:39;;;;;;;8.07;6.50;;;;;;;;;;5029877;28;20201;-62
2021/11/30 12:30:08;;;;;;;9.38;7.05;;;;;;;;;;5030166;28;20224;-63
2021/11/30 12:32:37;;;;;;;9.43;6.60;;;;;;;;;;5030117;28;20201;-63
2021/11/30 12:35:06;;;;;;;9.70;6.90;;;;;;;;;;5030284;28;20212;-62
2021/11/30 12:37:34;;;;;;;8.82;7.10;;;;;;;;;;5028793;28;20201;-62
2021/11/30 12:40:04;;;;;;;9.10;5.60;;;;;;;;;;5030176;28;20273;-62
2021/11/30 12:42:40;;;;;;;10.35;6.70;;;;;;;;;;5029463;28;20181;-63
2021/11/30 12:45:09;;;;;;;5.85;4.43;;;;;;;;;;5029916;28;20200;-66
2021/11/30 12:47:35;;;;;;;9.25;6.38;;;;;;;;;;5029725;28;20289;-67
2021/11/30 12:50:06;;;;;;;8.60;6.38;;;;;;;;;;5029797;28;20193;-65
2021/11/30 12:52:34;;;;;;;8.57;6.07;;;;;;;;;;5029964;28;20288;-67
2021/11/30 12:55:00;;;;;;;7.75;6.20;;;;;;;;;;5028569;28;20250;-63
2021/11/30 12:57:33;;;;;;;6.97;5.70;;;;;;;;;;5029525;28;20235;-64
2021/11/30 13:00:01;;;;;;;9.90;6.22;;;;;;;;;;5029895;28;20568;-65
2021/11/30 13:02:28;;;;;;;7.18;5.72;;;;;;;;;;5029091;28;20196;-60
2021/11/30 13:05:20;;;;;;;10.25;5.43;;;;;;;;;;5030253;28;20255;-65
2021/11/30 13:07:46;;;;;;;8.18;6.05;;;;;;;;;;5029220;28;20221;-65
2021/11/30 13:10:21;;;;;;;9.93;6.00;;;;;;;;;;5029973;28;20735;-62
2021/11/30 13:12:49;;;;;;;7.55;6.05;;;;;;;;;;5029574;28;20592;-63
2021/11/30 13:15:18;;;;;;;7.35;5.25;;;;;;;;;;5032193;28;20224;-66
2021/11/30 13:17:44;;;;;;;6.55;4.68;;;;;;;;;;5033266;28;20194;-68
2021/11/30 13:20:13;;;;;;;7.93;5.70;;;;;;;;;;5032270;28;20200;-64
2021/11/30 13:22:40;;;;;;;10.57;7.22;;;;;;;;;;5038715;28;20216;-69
2021/11/30 13:25:29;;;;;;;8.00;6.55;;;;;;;;;;5054300;28;20196;-62
2021/11/30 13:27:57;;;;;;;9.80;5.82;;;;;;;;;;5053090;28;20335;-64
2021/11/30 13:30:26;;;;;;;8.93;6.70;;;;;;;;;;5053442;28;20197;-66
2021/11/30 13:32:59;;;;;;;10.63;7.03;;;;;;;;;;5053518;28;20208;-66
2021/11/30 13:35:26;;;;;;;9.10;7.00;;;;;;;;;;5053375;28;20283;-64
2021/11/30 13:37:53;;;;;;;9.40;6.88;;;;;;;;;;5053029;28;20258;-70
2021/11/30 13:40:32;;;;;;;7.80;5.63;;;;;;;;;;5053630;28;20184;-65
2021/11/30 13:43:00;;;;;;;10.73;7.47;;;;;;;;;;5052803;28;20204;-67
2021/11/30 13:45:28;;;;;;;9.27;6.90;;;;;;;;;;5053003;28;20291;-67
2021/11/30 13:47:55;;;;;;;9.13;6.55;;;;;;;;;;5052898;28;20215;-67
2021/11/30 13:50:23;;;;;;;7.50;5.82;;;;;;;;;;5051842;28;20180;-63
2021/11/30 13:53:07;;;;;;;7.75;5.57;;;;;;;;;;5053438;28;20192;-68
2021/11/30 13:55:49;;;;;;;11.68;7.28;;;;;;;;;;5051751;28;20231;-66
2021/11/30 14:04:27;;;;;;;7.72;5.13;;;;;;;;;;5052649;28;20288;-62
2021/11/30 14:06:56;;;;;;;8.55;5.63;;;;;;;;;;5052452;28;20227;-65
2021/11/30 14:09:24;;;;;;;8.52;5.50;;;;;;;;;;5053020;28;20197;-66
2021/11/30 14:12:06;;;;;;;9.63;6.53;;;;;;;;;;5052247;28;20189;-65
2021/11/30 14:14:36;;;;;;;8.63;6.20;;;;;;;;;;5052640;28;20675;-66
2021/11/30 14:17:06;;;;;;;9.35;6.32;;;;;;;;;;5052755;28;20208;-64
2021/11/30 14:19:37;;;;;;;9.07;7.03;;;;;;;;;;5053275;28;20759;-67
2021/11/30 14:22:05;;;;;;;8.85;6.38;;;;;;;;;;5052157;28;20200;-64
2021/11/30 14:24:32;;;;;;;9.07;6.43;;;;;;;;;;5052600;28;20200;-66
2021/11/30 14:27:19;;;;;;;11.10;7.05;;;;;;;;;;5051674;28;20214;-63
2021/11/30 14:29:47;;;;;;;8.85;6.72;;;;;;;;;;5052115;28;20207;-66
2021/11/30 14:32:21;;;;;;;9.00;6.00;;;;;;;;;;5052027;28;20212;-67
2021/11/30 14:34:49;;;;;;;11.43;7.60;;;;;;;;;;5052339;28;20200;-65
2021/11/30 14:37:16;;;;;;;13.80;7.90;;;;;;;;;;5051948;28;20200;-64
2021/11/30 14:39:43;;;;;;;13.25;8.32;;;;;;;;;;5052257;28;20651;-66
2021/11/30 14:42:26;;;;;;;10.80;7.82;;;;;;;;;;5051599;28;20295;-67
2021/11/30 14:45:12;;;;;;;9.95;6.80;;;;;;;;;;5052043;28;20200;-65
2021/11/30 14:47:44;;;;;;;11.55;7.35;;;;;;;;;;5049703;28;20300;-65
2021/11/30 14:50:27;;;;;;;10.77;6.63;;;;;;;;;;5034777;28;20212;-64
2021/11/30 14:52:55;;;;;;;8.57;6.38;;;;;;;;;;5051747;28;20212;-61
2021/11/30 14:55:23;;;;;;;9.45;5.60;;;;;;;;;;5051991;28;20211;-72